Time;durP1;ratioP1;P1;durP2;ratioP2;P2;SDS_P1;SDS_P2;PMS_P1;PMS_P2;Temp;Humidity;BMP_temperature;BMP_pressure;BME280_temperature;BME280_humidity;BME280_pressure;Samples;Min_cycle;Max_cycle;Signal;HPM_P1;HPM_P2
2021/05/20 04:15:29;;;;;;;3.20;1.60;;;;;;;9.66;76.41;99257.25;6031401;23;20018;31
2021/05/20 04:17:54;;;;;;;4.28;2.30;;;;;;;9.72;76.30;99258.09;4898258;29;20041;-69
2021/05/20 04:20:20;;;;;;;1.50;1.30;;;;;;;9.65;77.11;99253.81;4900254;29;20127;-69
2021/05/20 04:22:45;;;;;;;2.70;1.35;;;;;;;9.71;76.44;99256.34;4900195;29;20057;-70
2021/05/20 04:25:11;;;;;;;4.03;1.80;;;;;;;9.69;75.52;99260.69;4900702;29;20032;-70
2021/05/20 04:27:36;;;;;;;5.63;1.80;;;;;;;9.82;76.00;99256.31;4918815;29;20024;-69
2021/05/20 04:30:03;;;;;;;2.13;1.40;;;;;;;9.60;75.43;99262.47;4963442;23;20050;-71
2021/05/20 04:32:28;;;;;;;2.70;1.58;;;;;;;9.77;76.14;99256.31;4937414;29;20369;-71
2021/05/20 04:34:55;;;;;;;3.13;1.50;;;;;;;9.70;75.37;99264.13;4920700;29;20031;-71
2021/05/20 04:37:21;;;;;;;1.33;1.23;;;;;;;9.77;77.15;99271.00;4937563;29;20046;-74
2021/05/20 04:39:46;;;;;;;2.65;1.40;;;;;;;10.17;76.44;99268.09;4937573;29;20027;-72
2021/05/20 04:42:11;;;;;;;11.07;5.35;;;;;;;10.26;74.36;99265.47;4937765;29;20396;-74
2021/05/20 04:44:36;;;;;;;1.95;1.20;;;;;;;10.20;74.14;99261.19;4937800;29;20034;-76
2021/05/20 04:47:02;;;;;;;1.40;1.30;;;;;;;10.51;73.22;99261.75;4937411;29;20038;-71
2021/05/20 04:49:27;;;;;;;1.65;1.40;;;;;;;10.43;72.95;99262.72;4937259;29;20024;-71
2021/05/20 04:51:53;;;;;;;4.07;1.40;;;;;;;10.40;73.65;99263.59;4937493;29;20488;-71
2021/05/20 04:54:18;;;;;;;1.42;1.30;;;;;;;10.60;73.21;99272.91;4936922;29;20140;-72
2021/05/20 04:56:43;;;;;;;2.10;1.35;;;;;;;10.38;73.66;99275.69;4937223;29;20114;-72
2021/05/20 04:59:09;;;;;;;2.83;1.40;;;;;;;10.39;74.15;99277.41;4937281;29;20418;-72
2021/05/20 05:01:34;;;;;;;3.08;1.40;;;;;;;10.46;74.56;99281.69;4920189;29;20481;-72
2021/05/20 05:03:59;;;;;;;2.80;1.70;;;;;;;10.69;72.58;99280.59;4937301;29;20027;-73
2021/05/20 05:06:25;;;;;;;5.30;1.60;;;;;;;10.47;74.00;99291.16;4937131;29;20389;-75
2021/05/20 05:08:51;;;;;;;5.45;2.28;;;;;;;10.67;72.28;99290.97;4937179;29;20024;-76
2021/05/20 05:11:16;;;;;;;1.10;1.00;;;;;;;10.71;71.83;99294.38;4937241;29;20397;-74
2021/05/20 05:13:41;;;;;;;3.63;1.30;;;;;;;10.75;72.24;99286.56;4937132;29;20086;-73
2021/05/20 05:16:07;;;;;;;1.80;1.20;;;;;;;10.85;70.71;99297.69;4936845;29;20023;-74
2021/05/20 05:18:32;;;;;;;3.72;1.10;;;;;;;10.89;72.57;99294.22;4937013;29;20023;-72
2021/05/20 05:20:58;;;;;;;1.48;1.13;;;;;;;11.08;71.18;99300.03;4936821;29;20020;-73
2021/05/20 05:23:23;;;;;;;4.53;1.05;;;;;;;11.33;70.56;99300.59;4936859;29;20115;-71
2021/05/20 05:25:49;;;;;;;5.57;3.58;;;;;;;11.27;69.99;99304.13;4936746;29;20075;-71
2021/05/20 05:28:14;;;;;;;1.70;1.40;;;;;;;11.01;70.75;99303.56;4936738;29;20459;-72
2021/05/20 05:30:40;;;;;;;1.20;1.00;;;;;;;10.91;70.93;99310.59;4936598;29;20031;-72
2021/05/20 05:33:05;;;;;;;1.38;1.00;;;;;;;10.90;70.58;99314.06;4936799;29;20544;-72
2021/05/20 05:35:30;;;;;;;2.28;1.20;;;;;;;10.87;70.04;99315.81;4936699;29;20031;-73
2021/05/20 05:37:56;;;;;;;3.35;1.20;;;;;;;10.83;70.65;99320.19;4936587;29;20118;-74
2021/05/20 05:40:21;;;;;;;1.23;1.00;;;;;;;10.76;70.51;99318.53;4936390;29;20032;-74
2021/05/20 05:42:46;;;;;;;2.70;0.80;;;;;;;10.63;71.26;99327.28;4936578;29;20035;-77
2021/05/20 05:45:12;;;;;;;1.20;1.10;;;;;;;10.58;72.46;99329.06;4936507;29;20031;-76
2021/05/20 05:47:37;;;;;;;1.75;0.95;;;;;;;10.73;71.51;99328.91;4936321;29;20038;-73
2021/05/20 05:50:09;;;;;;;2.92;1.13;;;;;;;10.60;72.32;99337.69;4919167;29;20034;-77
2021/05/20 05:52:34;;;;;;;1.70;1.02;;;;;;;10.48;73.06;99343.84;4928623;29;20066;-74
2021/05/20 05:55:00;;;;;;;2.67;1.38;;;;;;;10.57;72.22;99338.56;4935006;29;20067;-74
2021/05/20 05:57:25;;;;;;;1.88;0.98;;;;;;;10.38;72.50;99340.47;4935782;29;20477;-75
2021/05/20 05:59:51;;;;;;;3.47;0.90;;;;;;;10.32;72.74;99342.25;4935908;29;20079;-75
2021/05/20 06:02:18;;;;;;;6.15;3.78;;;;;;;10.33;73.72;99344.81;4936021;29;20027;-74
2021/05/20 06:04:47;;;;;;;1.58;1.40;;;;;;;10.44;73.22;99345.63;4935185;29;20516;-73
2021/05/20 06:07:13;;;;;;;2.43;1.10;;;;;;;10.59;73.28;99338.56;4934832;29;20035;-73
2021/05/20 06:09:38;;;;;;;1.65;1.20;;;;;;;10.54;71.71;99344.66;4935876;29;20444;-77
2021/05/20 06:12:04;;;;;;;1.65;1.20;;;;;;;10.54;72.16;99349.84;4935917;29;20031;-74
2021/05/20 06:14:29;;;;;;;1.10;0.93;;;;;;;10.58;72.06;99357.56;4935789;29;20118;-72
2021/05/20 06:16:55;;;;;;;1.52;1.00;;;;;;;10.61;72.32;99352.38;4935633;29;20674;-72
2021/05/20 06:19:20;;;;;;;1.20;1.10;;;;;;;10.63;73.29;99353.19;4934583;29;20027;-76
2021/05/20 06:21:45;;;;;;;1.65;1.20;;;;;;;10.70;72.52;99350.56;4935724;29;20537;-72
2021/05/20 06:24:11;;;;;;;2.47;1.60;;;;;;;10.81;71.91;99360.81;4935663;29;20496;-72
2021/05/20 06:26:37;;;;;;;8.02;1.30;;;;;;;10.68;71.43;99356.59;4935356;29;20027;-74
2021/05/20 06:29:02;;;;;;;3.95;1.35;;;;;;;10.60;72.53;99361.03;4935364;29;20032;-74
2021/05/20 06:31:29;;;;;;;1.67;1.30;;;;;;;10.60;73.24;99363.63;4934753;29;20027;-74
2021/05/20 06:33:54;;;;;;;2.28;1.33;;;;;;;10.76;72.73;99354.81;4935377;29;20046;-74
2021/05/20 06:36:20;;;;;;;1.77;1.40;;;;;;;10.87;72.60;99368.53;4935214;29;20031;-76
2021/05/20 06:38:46;;;;;;;2.53;1.20;;;;;;;10.86;72.55;99364.22;4935398;29;20042;-76
2021/05/20 06:41:11;;;;;;;4.93;1.30;;;;;;;10.91;72.42;99367.63;4934744;29;20473;-76
2021/05/20 06:43:37;;;;;;;1.33;1.08;;;;;;;11.05;72.39;99362.31;4934842;29;20059;-76
2021/05/20 06:46:06;;;;;;;2.75;1.05;;;;;;;11.10;72.03;99365.72;4935158;29;20079;-76
2021/05/20 06:48:31;;;;;;;1.55;1.17;;;;;;;11.02;72.68;99363.22;4935228;29;20031;-76
2021/05/20 06:50:57;;;;;;;2.85;1.27;;;;;;;10.78;72.12;99368.59;4934476;29;20031;-76
2021/05/20 06:53:24;;;;;;;2.63;1.23;;;;;;;11.49;70.31;99364.38;4933492;29;20027;-75
2021/05/20 06:55:53;;;;;;;1.13;0.90;;;;;;;11.59;68.95;99365.97;4935034;29;20028;-75
2021/05/20 07:01:02;;;;;;;1.20;1.10;;;;;;;11.99;68.20;99365.50;4934996;29;20050;-76
2021/05/20 07:03:27;;;;;;;2.55;1.20;;;;;;;12.58;65.69;99371.50;4934760;29;20106;-74
2021/05/20 07:05:54;;;;;;;2.85;1.38;;;;;;;13.08;63.80;99364.56;4933960;29;20032;-74
2021/05/20 07:08:20;;;;;;;2.65;1.20;;;;;;;13.01;63.20;99375.13;4951728;29;20035;-74
2021/05/20 07:10:45;;;;;;;1.42;1.33;;;;;;;13.30;64.18;99372.00;4953979;29;20030;-73
2021/05/20 07:13:11;;;;;;;5.50;3.25;;;;;;;13.74;61.80;99362.44;4941441;29;20028;-75
2021/05/20 07:15:36;;;;;;;5.55;1.15;;;;;;;13.45;62.50;99376.91;4934331;29;20023;-74
2021/05/20 07:18:02;;;;;;;4.85;1.40;;;;;;;13.08;63.08;99372.38;4933860;29;20032;-76
2021/05/20 07:20:28;;;;;;;1.25;1.15;;;;;;;13.13;62.15;99369.69;4933727;29;20063;-73
2021/05/20 07:22:53;;;;;;;1.45;1.05;;;;;;;12.87;63.31;99372.75;4934589;29;20063;-72
2021/05/20 07:25:19;;;;;;;2.20;1.70;;;;;;;12.81;65.03;99363.34;4934834;29;20122;-74
2021/05/20 07:27:44;;;;;;;13.70;8.65;;;;;;;14.27;61.59;99349.94;4921979;29;20024;-72
2021/05/20 07:30:10;;;;;;;5.70;1.70;;;;;;;17.03;52.32;99346.25;4930476;29;20445;-72
2021/05/20 07:32:36;;;;;;;3.03;0.98;;;;;;;19.82;43.73;99341.00;4934592;29;20028;-72
2021/05/20 07:35:01;;;;;;;1.45;0.75;;;;;;;20.94;41.22;99346.13;4934590;29;20389;-73
2021/05/20 07:37:27;;;;;;;3.53;1.02;;;;;;;20.58;41.58;99357.56;4934544;29;20031;-77
2021/05/20 07:39:52;;;;;;;1.30;1.00;;;;;;;18.61;45.43;99359.41;4927505;29;20020;-74
2021/05/20 07:42:17;;;;;;;1.80;0.73;;;;;;;17.13;48.96;99365.94;4934011;29;20038;-74
2021/05/20 07:44:44;;;;;;;4.35;1.10;;;;;;;15.97;52.98;99361.91;4934589;29;20031;-72
2021/05/20 07:47:09;;;;;;;1.60;0.88;;;;;;;15.61;54.54;99354.19;4934322;29;20031;-77
2021/05/20 07:49:37;;;;;;;2.85;1.70;;;;;;;14.50;58.01;99376.31;4933474;29;20035;-74
2021/05/20 07:52:04;;;;;;;1.65;1.00;;;;;;;14.50;58.01;99376.31;4933405;29;20027;-72
2021/05/20 07:54:33;;;;;;;5.75;2.35;;;;;;;13.50;60.49;99380.28;4934414;29;20032;-73
2021/05/20 07:56:59;;;;;;;2.83;1.35;;;;;;;13.42;61.02;99376.94;4934205;29;20525;-75
2021/05/20 07:59:24;;;;;;;1.65;1.25;;;;;;;13.20;61.79;99375.59;4934273;29;20059;-74
2021/05/20 08:02:08;;;;;;;1.67;1.20;;;;;;;13.25;61.48;99379.03;4934157;29;20545;-74
2021/05/20 08:04:34;;;;;;;1.52;1.00;;;;;;;13.24;61.56;99379.91;4933728;29;20027;-74
2021/05/20 08:07:28;;;;;;;22.80;15.65;;;;;;;13.58;61.34;99365.31;4939957;29;20031;-75
2021/05/20 08:12:34;;;;;;;1.10;0.80;;;;;;;14.30;58.46;99368.09;4934393;29;20031;-77
2021/05/20 08:14:59;;;;;;;4.45;1.10;;;;;;;14.83;55.84;99360.72;4932776;29;20587;-73
2021/05/20 08:17:25;;;;;;;3.22;1.08;;;;;;;15.49;55.09;99361.56;4933712;29;20087;-74
2021/05/20 08:19:50;;;;;;;1.27;1.08;;;;;;;14.51;57.11;99367.63;4923006;29;20070;-77
2021/05/20 08:22:15;;;;;;;3.13;1.15;;;;;;;17.86;49.48;99351.09;4934117;29;20067;-72
2021/05/20 08:24:41;;;;;;;1.30;1.10;;;;;;;18.46;46.83;99344.31;4934160;29;20028;-76
2021/05/20 08:27:11;;;;;;;2.17;1.00;;;;;;;17.03;48.71;99351.47;4933081;29;20035;-74
2021/05/20 08:29:36;;;;;;;2.25;1.15;;;;;;;15.12;54.98;99355.59;4937197;29;20532;-76
2021/05/20 08:32:01;;;;;;;1.65;1.00;;;;;;;14.24;57.91;99356.06;4937868;29;20119;-76
2021/05/20 08:34:27;;;;;;;1.77;1.00;;;;;;;13.57;60.19;99355.81;4937631;29;20028;-72
2021/05/20 08:36:52;;;;;;;3.63;1.05;;;;;;;13.08;62.64;99361.09;4937047;29;20032;-72
2021/05/20 08:39:18;;;;;;;1.25;1.00;;;;;;;13.35;61.99;99360.59;4937317;29;20070;-77
2021/05/20 08:41:43;;;;;;;1.52;1.20;;;;;;;13.42;62.24;99361.34;4920216;29;20027;-77
2021/05/20 08:44:11;;;;;;;1.90;0.90;;;;;;;13.42;61.33;99363.94;4937526;29;20032;-73
2021/05/20 08:46:37;;;;;;;2.55;1.27;;;;;;;14.13;59.21;99350.25;4936796;29;20023;-75
2021/05/20 08:49:06;;;;;;;4.38;1.30;;;;;;;14.26;58.84;99356.03;4936930;29;20031;-73
2021/05/20 08:51:32;;;;;;;1.50;0.97;;;;;;;14.79;57.53;99354.72;4936871;29;20122;-75
2021/05/20 08:53:58;;;;;;;2.35;0.80;;;;;;;17.94;48.15;99341.16;4936703;29;20035;-74
2021/05/20 08:56:25;;;;;;;0.77;0.77;;;;;;;16.91;49.72;99342.28;4937109;29;20028;-78
2021/05/20 08:58:52;;;;;;;1.10;0.98;;;;;;;16.19;52.25;99347.25;4937254;29;20496;-73
2021/05/20 09:01:38;;;;;;;2.88;1.00;;;;;;;16.08;52.42;99344.13;4919474;29;20051;-73
2021/05/20 09:04:05;;;;;;;1.58;0.85;;;;;;;17.46;48.95;99336.84;4937043;29;20028;-77
2021/05/20 09:06:59;;;;;;;0.98;0.85;;;;;;;18.88;45.85;99340.84;4936908;29;20380;-72
2021/05/20 09:09:32;;;;;;;1.88;0.98;;;;;;;16.56;52.01;99351.28;4936943;29;20512;-73
2021/05/20 09:11:58;;;;;;;3.20;1.10;;;;;;;15.23;53.64;99351.81;4919694;29;20481;-76
2021/05/20 09:14:30;;;;;;;1.13;1.02;;;;;;;14.76;57.28;99352.22;4936159;29;20397;-76
2021/05/20 09:17:18;;;;;;;4.00;0.70;;;;;;;15.49;54.09;99351.97;4936757;29;20027;-73
2021/05/20 09:19:51;;;;;;;3.17;1.05;;;;;;;15.53;55.17;99350.97;4919637;29;20481;-72
2021/05/20 09:22:17;;;;;;;1.15;0.88;;;;;;;15.57;54.85;99344.78;4936849;29;20111;-73
2021/05/20 09:24:54;;;;;;;1.65;0.90;;;;;;;15.01;55.28;99352.41;4935727;29;20103;-73
2021/05/20 09:27:34;;;;;;;2.45;0.73;;;;;;;14.97;55.59;99350.78;4935695;29;20036;-77
2021/05/20 09:30:20;;;;;;;1.95;0.80;;;;;;;14.96;54.84;99349.09;4936473;29;20071;-72
2021/05/20 09:33:15;;;;;;;1.48;0.60;;;;;;;14.89;53.95;99352.72;4934956;29;20019;-75
2021/05/20 09:35:42;;;;;;;0.80;0.60;;;;;;;14.96;54.58;99351.69;4933378;29;20046;-75
2021/05/20 09:38:17;;;;;;;0.70;0.70;;;;;;;15.14;54.11;99352.97;4933921;29;20030;-75
2021/05/20 09:40:48;;;;;;;2.75;0.60;;;;;;;16.52;50.23;99359.28;4932079;29;20430;-75
2021/05/20 09:43:22;;;;;;;2.67;0.70;;;;;;;17.99;46.41;99344.47;4942939;29;20382;-75
2021/05/20 09:45:50;;;;;;;4.90;0.80;;;;;;;17.80;45.61;99346.09;4955434;29;20054;-75
2021/05/20 09:48:16;;;;;;;1.48;0.63;;;;;;;19.77;41.89;99333.38;4954145;29;20026;-74
2021/05/20 09:50:47;;;;;;;0.93;0.57;;;;;;;20.50;39.35;99338.66;4955079;29;20019;-76
2021/05/20 09:53:16;;;;;;;5.68;0.73;;;;;;;19.81;41.07;99338.47;4955250;29;20571;-73
2021/05/20 09:55:48;;;;;;;2.08;0.80;;;;;;;20.33;40.75;99335.97;4955333;29;20047;-74
2021/05/20 09:58:13;;;;;;;1.63;0.70;;;;;;;19.58;41.21;99332.47;4955002;29;20037;-73
2021/05/20 10:00:39;;;;;;;2.22;0.60;;;;;;;18.63;43.59;99336.59;4954085;29;20023;-73
2021/05/20 10:03:11;;;;;;;1.35;0.70;;;;;;;18.04;45.12;99337.25;4954248;29;20023;-76
2021/05/20 10:05:39;;;;;;;0.80;0.80;;;;;;;15.32;52.12;99341.13;4953107;29;20023;-76
2021/05/20 10:08:07;;;;;;;0.70;0.70;;;;;;;15.78;51.39;99338.06;4953435;29;20077;-74
2021/05/20 10:10:41;;;;;;;2.15;0.52;;;;;;;15.87;52.21;99340.41;4952545;29;20110;-75
2021/05/20 10:13:12;;;;;;;0.77;0.70;;;;;;;15.44;52.86;99346.03;4952557;29;20023;-77
2021/05/20 10:15:40;;;;;;;0.50;0.50;;;;;;;14.95;52.68;99351.75;4954710;29;20031;-76
2021/05/20 10:18:10;;;;;;;1.00;0.60;;;;;;;14.71;51.77;99358.44;4954675;29;20074;-73
2021/05/20 10:20:36;;;;;;;3.28;0.80;;;;;;;14.81;52.22;99346.88;4954655;29;20023;-73
2021/05/20 10:23:06;;;;;;;3.05;0.65;;;;;;;14.77;51.87;99350.47;4941573;29;20038;-75
2021/05/20 10:25:33;;;;;;;1.55;0.60;;;;;;;14.97;52.68;99339.50;4927102;29;20024;-76
2021/05/20 10:27:59;;;;;;;0.85;0.80;;;;;;;15.14;52.37;99338.16;4935445;29;20099;-76
2021/05/20 10:30:25;;;;;;;3.15;0.70;;;;;;;14.87;51.40;99339.75;4949465;23;20951;-69
2021/05/20 10:32:55;;;;;;;5.00;0.70;;;;;;;15.03;52.83;99334.97;4935578;29;20035;-69
2021/05/20 10:35:21;;;;;;;6.55;0.88;;;;;;;18.93;43.81;99318.72;4934514;29;20452;-69
2021/05/20 10:37:54;;;;;;;0.60;0.60;;;;;;;20.47;39.15;99317.75;4935281;29;20031;-70
2021/05/20 10:40:20;;;;;;;1.02;0.70;;;;;;;21.64;37.42;99318.69;4935193;29;20134;-70
2021/05/20 10:42:45;;;;;;;1.95;0.63;;;;;;;20.69;39.32;99320.16;4935279;29;20051;-70
2021/05/20 10:45:22;;;;;;;1.58;0.60;;;;;;;21.45;36.67;99312.69;4934997;29;20031;-70
2021/05/20 10:48:02;;;;;;;0.70;0.60;;;;;;;23.29;34.48;99308.25;4934444;29;20559;-70
2021/05/20 10:50:50;;;;;;;0.73;0.73;;;;;;;22.58;33.75;99306.34;4933914;29;20028;-70
2021/05/20 10:53:37;;;;;;;0.80;0.50;;;;;;;20.33;38.56;99320.19;4920874;29;20508;-70
2021/05/20 10:56:12;;;;;;;2.78;0.57;;;;;;;20.07;39.49;99314.41;4922193;29;20146;-70
2021/05/20 10:58:38;;;;;;;4.50;1.45;;;;;;;20.14;40.20;99307.91;4923385;29;20110;-70
2021/05/20 11:01:31;;;;;;;0.80;0.60;;;;;;;22.31;34.61;99293.81;4923629;29;20086;-69
2021/05/20 11:04:07;;;;;;;2.15;0.57;;;;;;;22.04;36.10;99295.34;4926468;29;20497;-70
2021/05/20 11:06:35;;;;;;;0.50;0.50;;;;;;;19.51;38.43;99300.34;4925038;29;20075;-69
2021/05/20 11:09:03;;;;;;;1.60;0.50;;;;;;;22.30;35.35;99292.13;4925692;29;20421;-70
2021/05/20 11:11:31;;;;;;;0.68;0.60;;;;;;;24.62;30.67;99275.88;4925772;29;20027;-70
2021/05/20 11:14:26;;;;;;;0.45;0.35;;;;;;;27.12;28.89;99271.84;4921997;29;20142;-70
2021/05/20 11:16:53;;;;;;;1.02;0.43;;;;;;;24.18;32.01;99292.91;4923863;29;20032;-70
2021/05/20 11:19:18;;;;;;;0.70;0.47;;;;;;;23.54;33.23;99271.38;4925249;29;20033;-70
2021/05/20 11:21:59;;;;;;;0.57;0.50;;;;;;;24.16;31.49;99276.25;4924003;29;20511;-67
2021/05/20 11:24:32;;;;;;;1.70;0.75;;;;;;;18.11;41.29;99302.00;4921140;29;20082;-67
2021/05/20 11:27:09;;;;;;;12.15;7.10;;;;;;;17.53;42.87;99285.91;4920228;29;20382;-69
2021/05/20 11:29:37;;;;;;;0.68;0.55;;;;;;;19.09;41.59;99266.34;4926223;29;20036;-70
2021/05/20 11:32:19;;;;;;;0.50;0.47;;;;;;;19.67;37.69;99263.69;4924624;29;20043;-70
2021/05/20 11:37:32;;;;;;;2.53;0.80;;;;;;;18.04;41.34;99258.59;4925744;29;20985;-69
2021/05/20 11:39:57;;;;;;;6.05;0.63;;;;;;;20.14;37.13;99252.66;4923958;29;20032;-70
2021/05/20 11:42:28;;;;;;;5.28;0.52;;;;;;;21.76;33.85;99248.59;4925810;29;20036;-70
2021/05/20 11:44:55;;;;;;;0.50;0.50;;;;;;;23.41;30.43;99248.47;4925486;29;20032;-70
2021/05/20 11:47:22;;;;;;;1.75;0.60;;;;;;;22.64;30.26;99247.03;4920022;29;20405;-70
2021/05/20 11:49:49;;;;;;;1.55;0.60;;;;;;;22.67;30.54;99247.66;4924145;29;20027;-70
2021/05/20 11:52:15;;;;;;;1.90;0.40;;;;;;;20.47;33.94;99259.84;4925231;29;20453;-70
2021/05/20 11:54:45;;;;;;;1.27;0.50;;;;;;;19.08;36.85;99256.78;4924489;29;20034;-70
2021/05/20 11:57:11;;;;;;;0.90;0.43;;;;;;;18.51;40.29;99255.75;4922662;29;20042;-70
2021/05/20 11:59:37;;;;;;;2.40;0.60;;;;;;;18.17;40.02;99251.91;4925902;29;20028;-70
2021/05/20 12:02:32;;;;;;;0.80;0.60;;;;;;;17.75;41.65;99258.91;4924724;29;20032;-70
2021/05/20 12:05:01;;;;;;;3.08;1.13;;;;;;;17.14;42.20;99255.06;4927647;29;20126;-70
2021/05/20 12:07:28;;;;;;;1.20;0.63;;;;;;;16.73;46.23;99266.16;4925711;29;20074;-70
2021/05/20 12:10:05;;;;;;;0.75;0.70;;;;;;;16.03;47.22;99267.59;4927861;29;20036;-70
2021/05/20 12:12:30;;;;;;;1.02;0.85;;;;;;;15.98;46.58;99264.28;4924857;29;20030;-70
2021/05/20 12:14:56;;;;;;;1.38;0.80;;;;;;;16.44;46.41;99257.53;4928755;29;20031;-70
2021/05/20 12:17:24;;;;;;;4.13;3.30;;;;;;;16.55;45.51;99249.31;4924233;29;20129;-70
2021/05/20 12:19:51;;;;;;;1.23;0.70;;;;;;;16.21;45.12;99254.84;4926573;29;20028;-70
2021/05/20 12:22:22;;;;;;;0.60;0.60;;;;;;;16.47;44.53;99252.19;4923933;29;20043;-70
2021/05/20 12:24:49;;;;;;;0.50;0.50;;;;;;;16.49;44.45;99249.50;4929435;29;20122;-70
2021/05/20 12:27:36;;;;;;;0.45;0.45;;;;;;;16.94;43.98;99236.59;4926512;29;20511;-70
2021/05/20 12:30:17;;;;;;;2.85;0.73;;;;;;;17.08;44.88;99239.56;4926798;29;20063;-70
2021/05/20 12:32:44;;;;;;;3.42;0.95;;;;;;;16.97;45.95;99236.50;4928704;29;21352;-70
2021/05/20 12:35:21;;;;;;;1.58;0.80;;;;;;;17.18;46.34;99240.94;4928895;29;20046;-70
2021/05/20 12:38:09;;;;;;;1.85;0.60;;;;;;;17.05;46.97;99239.69;4928660;29;20398;-70
2021/05/20 12:40:49;;;;;;;0.88;0.65;;;;;;;17.23;45.47;99238.16;4927991;29;20111;-70
2021/05/20 12:43:18;;;;;;;0.80;0.70;;;;;;;17.33;44.62;99243.91;4924670;29;20047;-70
2021/05/20 12:45:46;;;;;;;3.63;0.52;;;;;;;17.18;44.22;99235.69;4926456;29;20058;-69
2021/05/20 12:48:21;;;;;;;3.70;0.60;;;;;;;16.87;44.20;99235.97;4924003;29;20110;-69
2021/05/20 12:50:46;;;;;;;4.82;0.80;;;;;;;16.82;44.24;99232.66;4926555;29;20032;-70
2021/05/20 12:53:12;;;;;;;2.40;0.70;;;;;;;16.86;44.73;99229.03;4925276;29;21390;-70
2021/05/20 12:55:41;;;;;;;5.45;0.60;;;;;;;17.21;43.54;99230.38;4928135;29;20067;-70
2021/05/20 12:58:09;;;;;;;6.78;0.60;;;;;;;17.25;42.62;99225.00;4925713;29;20050;-70
2021/05/20 13:00:57;;;;;;;1.00;0.60;;;;;;;18.19;41.59;99208.13;4926926;29;20100;-70
2021/05/20 13:03:25;;;;;;;0.67;0.60;;;;;;;18.61;40.38;99220.31;4928795;29;20067;-71
2021/05/20 13:05:52;;;;;;;1.27;0.57;;;;;;;18.41;41.28;99217.69;4926890;29;20023;-70
2021/05/20 13:08:25;;;;;;;0.90;0.70;;;;;;;18.61;40.50;99212.44;4922064;29;21367;-70
2021/05/20 13:10:51;;;;;;;0.82;0.60;;;;;;;17.92;40.38;99219.75;4922405;29;20381;-70
2021/05/20 13:13:33;;;;;;;0.90;0.60;;;;;;;17.81;39.95;99219.34;4926581;29;20031;-69
2021/05/20 13:16:22;;;;;;;1.80;0.90;;;;;;;17.77;42.37;99215.97;4928415;29;20142;-71
2021/05/20 13:22:21;;;;;;;0.98;0.60;;;;;;;17.82;42.16;99207.94;4912745;29;20044;-69
2021/05/20 13:24:49;;;;;;;6.22;1.90;;;;;;;17.81;43.32;99211.47;4925165;29;20556;-70
2021/05/20 13:27:19;;;;;;;1.42;0.82;;;;;;;17.32;43.21;99211.59;4913702;29;20505;-70
2021/05/20 13:29:56;;;;;;;1.75;0.88;;;;;;;18.22;41.54;99207.97;4925816;29;20036;-69
2021/05/20 13:32:35;;;;;;;1.33;1.00;;;;;;;18.02;41.57;99202.72;4923273;29;20039;-70
2021/05/20 13:35:03;;;;;;;29.80;19.08;;;;;;;19.05;39.95;99201.78;4928216;29;20404;-70
2021/05/20 13:37:29;;;;;;;4.53;1.30;;;;;;;18.94;40.57;99196.13;4922555;29;20638;-70
2021/05/20 13:39:54;;;;;;;1.55;0.93;;;;;;;18.63;40.75;99200.09;4925897;29;20035;-70
2021/05/20 13:42:20;;;;;;;0.55;0.55;;;;;;;18.05;41.66;99202.59;4924220;29;20481;-69
2021/05/20 13:47:11;;;;;;;1.42;0.70;;;;;;;16.97;45.78;99202.47;4927889;29;20114;-71
2021/05/20 13:49:39;;;;;;;1.92;0.77;;;;;;;17.15;45.01;99198.28;4925014;29;20080;-70
2021/05/20 13:52:08;;;;;;;1.33;0.73;;;;;;;17.15;45.80;99193.06;4921357;29;20118;-70
2021/05/20 13:54:33;;;;;;;2.25;0.77;;;;;;;17.14;46.19;99194.81;4927493;29;20127;-69
2021/05/20 13:57:00;;;;;;;1.95;0.80;;;;;;;17.22;44.51;99199.78;4906527;29;20485;-69
2021/05/20 13:59:25;;;;;;;8.05;1.50;;;;;;;17.44;44.97;99186.69;4927501;29;20034;-69
2021/05/20 14:01:51;;;;;;;0.40;0.40;;;;;;;17.80;42.98;99176.53;4927605;29;20027;-70
2021/05/20 14:04:24;;;;;;;0.52;0.50;;;;;;;17.78;43.20;99167.03;4905393;29;20118;-70
2021/05/20 14:06:49;;;;;;;1.98;0.45;;;;;;;17.23;43.54;99166.59;4910093;29;20418;-70
2021/05/20 14:09:15;;;;;;;1.98;0.50;;;;;;;17.31;44.40;99164.50;4924611;29;20024;-69
2021/05/20 14:11:40;;;;;;;0.60;0.52;;;;;;;17.14;43.11;99163.41;4923887;29;20035;-70
2021/05/20 14:14:05;;;;;;;1.25;0.50;;;;;;;17.26;45.38;99166.44;4926972;29;20032;-70
2021/05/20 14:16:31;;;;;;;1.05;0.90;;;;;;;17.94;42.44;99157.63;4921223;29;20047;-71
2021/05/20 14:18:57;;;;;;;1.10;0.75;;;;;;;18.38;40.94;99157.50;4927261;29;20386;-70
2021/05/20 14:21:24;;;;;;;2.35;0.70;;;;;;;18.20;42.34;99148.66;4923483;29;20484;-70
2021/05/20 14:23:49;;;;;;;3.25;0.50;;;;;;;17.76;42.12;99153.16;4925334;29;20043;-70
2021/05/20 14:26:14;;;;;;;2.55;0.73;;;;;;;17.29;42.53;99153.25;4904567;29;20031;-70
2021/05/20 14:28:40;;;;;;;0.90;0.60;;;;;;;17.67;40.54;99155.19;4926214;29;20059;-70
2021/05/20 14:31:05;;;;;;;1.30;0.60;;;;;;;17.85;42.05;99147.53;4924119;29;20036;-70
2021/05/20 14:33:31;;;;;;;2.92;0.70;;;;;;;17.96;41.23;99145.28;4923725;29;20085;-70
2021/05/20 14:35:56;;;;;;;1.65;0.75;;;;;;;18.37;41.60;99150.53;4922955;29;20408;-69
2021/05/20 14:38:23;;;;;;;2.45;0.80;;;;;;;18.89;41.41;99146.44;4921989;29;20403;-70
2021/05/20 14:40:48;;;;;;;2.38;1.70;;;;;;;18.37;41.59;99150.53;4907163;29;20059;-70
2021/05/20 14:43:14;;;;;;;0.93;0.70;;;;;;;17.84;42.22;99151.03;4925788;29;20123;-70
2021/05/20 14:45:39;;;;;;;5.28;3.45;;;;;;;18.00;42.45;99146.03;4920875;29;20027;-71
2021/05/20 14:48:05;;;;;;;2.80;0.90;;;;;;;17.87;43.17;99145.69;4926720;29;21204;-70
2021/05/20 14:50:31;;;;;;;1.52;1.40;;;;;;;18.10;42.25;99148.19;4924777;29;20028;-71
2021/05/20 14:53:06;;;;;;;1.92;0.93;;;;;;;18.30;42.65;99142.06;4926766;29;20028;-71
2021/05/20 14:55:42;;;;;;;3.75;1.00;;;;;;;17.58;42.68;99139.84;4902191;29;20034;-70
2021/05/20 15:06:20;;;;;;;0.93;0.60;;;;;;;18.16;42.28;99132.19;4920019;29;20034;-71
2021/05/20 15:08:48;;;;;;;3.63;0.80;;;;;;;18.46;41.30;99134.38;4924518;29;20035;-70
2021/05/20 15:11:22;;;;;;;0.40;0.40;;;;;;;18.39;40.89;99127.72;4924223;29;20027;-70
2021/05/20 15:16:21;;;;;;;0.50;0.50;;;;;;;18.17;42.40;99123.38;4918978;29;20628;-71
2021/05/20 15:18:46;;;;;;;0.98;0.70;;;;;;;18.10;41.59;99119.34;4919670;29;20489;-70
2021/05/20 15:21:12;;;;;;;2.30;0.60;;;;;;;18.59;41.35;99113.69;4923804;29;20063;-70
2021/05/20 15:23:38;;;;;;;0.93;0.80;;;;;;;18.29;42.36;99100.19;4920319;29;20409;-71
2021/05/20 15:26:04;;;;;;;2.17;0.65;;;;;;;18.19;42.24;99103.22;4926212;29;20473;-71
2021/05/20 15:28:30;;;;;;;3.05;1.17;;;;;;;17.97;43.16;99091.94;4920360;29;21479;-71
2021/05/20 15:30:56;;;;;;;0.75;0.70;;;;;;;17.78;43.88;99101.50;4925730;29;20031;-71
2021/05/20 15:33:21;;;;;;;1.48;0.70;;;;;;;17.70;43.96;99104.44;4920157;29;20386;-71
2021/05/20 15:35:46;;;;;;;2.10;1.50;;;;;;;17.28;45.76;99104.41;4926047;29;20063;-71
2021/05/20 15:38:12;;;;;;;2.05;1.00;;;;;;;17.09;45.89;99105.13;4924771;29;20544;-71
2021/05/20 15:40:38;;;;;;;1.88;1.42;;;;;;;17.22;44.92;99102.88;4921830;29;20036;-71
2021/05/20 15:43:05;;;;;;;3.88;2.33;;;;;;;17.48;45.17;99097.44;4907494;29;20028;-71
2021/05/20 15:45:31;;;;;;;3.50;2.92;;;;;;;17.41;45.00;99095.16;4921035;29;20035;-72
2021/05/20 15:50:40;;;;;;;1.33;1.23;;;;;;;17.35;45.33;99105.84;4922314;29;20024;-70
2021/05/20 15:53:07;;;;;;;1.00;1.00;;;;;;;17.38;45.34;99106.59;4918379;29;20540;-70
2021/05/20 15:55:33;;;;;;;2.33;0.80;;;;;;;17.18;45.29;99104.75;4918572;29;20028;-72
2021/05/20 15:57:58;;;;;;;2.38;0.60;;;;;;;16.36;47.40;99100.03;4919766;29;20802;-72
2021/05/20 16:00:24;;;;;;;1.67;0.75;;;;;;;17.35;45.65;99085.75;4912104;29;20051;-70
2021/05/20 16:02:49;;;;;;;2.70;0.70;;;;;;;17.58;45.73;99086.56;4920642;29;20035;-70
2021/05/20 16:05:18;;;;;;;1.13;0.80;;;;;;;17.87;43.85;99075.75;4900838;29;20031;-70
2021/05/20 16:07:50;;;;;;;1.55;0.50;;;;;;;17.92;44.29;99072.94;4917841;29;20444;-70
2021/05/20 16:15:15;;;;;;;0.80;0.65;;;;;;;18.02;43.66;99068.97;4917628;29;20509;-70
2021/05/20 16:17:41;;;;;;;0.75;0.75;;;;;;;17.25;44.45;99065.22;4918611;29;20095;-70
2021/05/20 16:20:07;;;;;;;0.80;0.80;;;;;;;17.97;44.55;99068.34;4920674;29;20039;-70
2021/05/20 16:23:02;;;;;;;1.08;1.00;;;;;;;18.02;44.40;99068.97;4919612;29;20032;-70
2021/05/20 16:28:29;;;;;;;2.95;0.55;;;;;;;17.46;45.52;99059.13;4881581;29;20106;-71
2021/05/20 16:38:30;;;;;;;0.70;0.70;;;;;;;17.61;44.12;99034.06;4922051;29;20031;-77